Time;durP1;ratioP1;P1;durP2;ratioP2;P2;SDS_P1;SDS_P2;PMS_P1;PMS_P2;Temp;Humidity;BMP_temperature;BMP_pressure;BME280_temperature;BME280_humidity;BME280_pressure;Samples;Min_cycle;Max_cycle;Signal;HPM_P1;HPM_P2
2022/06/29 00:00:16;;;;;;;6.05;1.92;;;14.40;99.90;;;;;;5012703;28;20069;-72
2022/06/29 00:02:43;;;;;;;10.18;2.40;;;14.50;99.90;;;;;;5021798;28;20871;-72
2022/06/29 00:05:10;;;;;;;6.97;1.85;;;14.50;99.90;;;;;;5016444;28;20259;-71
2022/06/29 00:07:36;;;;;;;6.60;1.50;;;14.50;99.90;;;;;;5026927;28;20039;-72
2022/06/29 00:10:03;;;;;;;7.90;1.98;;;14.50;99.90;;;;;;5019471;28;20091;-71
2022/06/29 00:12:29;;;;;;;6.85;1.60;;;14.50;99.90;;;;;;5025783;28;20048;-71
2022/06/29 00:14:55;;;;;;;10.25;2.03;;;14.50;99.90;;;;;;5016713;28;20037;-71
2022/06/29 00:17:21;;;;;;;7.22;1.60;;;14.50;99.90;;;;;;5046937;28;20040;-71
2022/06/29 00:19:47;;;;;;;6.20;1.77;;;14.50;99.90;;;;;;5020590;28;20033;-72
2022/06/29 00:22:13;;;;;;;7.10;1.65;;;14.50;99.90;;;;;;5019309;28;20515;-71
2022/06/29 00:24:38;;;;;;;6.32;1.40;;;14.40;99.90;;;;;;5019016;28;20052;-72
2022/06/29 00:27:04;;;;;;;6.07;1.20;;;14.40;99.90;;;;;;5051343;28;20034;-72
2022/06/29 00:29:30;;;;;;;9.75;1.45;;;14.40;99.90;;;;;;5024415;28;20041;-72
2022/06/29 00:31:56;;;;;;;6.30;1.30;;;14.30;99.90;;;;;;5048236;28;20119;-72
2022/06/29 00:34:22;;;;;;;9.23;1.60;;;14.30;99.90;;;;;;5022372;28;20475;-72
2022/06/29 00:36:47;;;;;;;4.90;1.38;;;14.30;99.90;;;;;;5023654;28;20036;-72
2022/06/29 00:39:13;;;;;;;8.57;1.70;;;14.30;99.90;;;;;;5026228;28;20044;-72
2022/06/29 00:41:40;;;;;;;8.18;1.70;;;14.30;99.90;;;;;;5026532;28;20468;-72
2022/06/29 00:44:10;;;;;;;4.18;1.33;;;14.20;99.90;;;;;;5023270;28;20114;-72
2022/06/29 00:46:41;;;;;;;7.38;1.92;;;14.20;99.90;;;;;;5024324;28;20407;-72
2022/06/29 00:49:06;;;;;;;9.45;1.75;;;14.20;99.90;;;;;;5028553;28;20044;-72
2022/06/29 00:51:35;;;;;;;6.88;1.70;;;14.30;99.90;;;;;;5023666;28;20546;-72
2022/06/29 00:54:04;;;;;;;6.60;1.58;;;14.30;99.90;;;;;;5030012;28;20037;-71
2022/06/29 00:56:31;;;;;;;8.32;1.50;;;14.40;99.90;;;;;;5026948;28;20033;-74
2022/06/29 00:58:59;;;;;;;5.05;1.30;;;14.60;99.90;;;;;;5024053;28;20528;-72
2022/06/29 01:01:25;;;;;;;7.90;1.40;;;14.60;99.90;;;;;;5024600;28;20116;-70
2022/06/29 01:03:51;;;;;;;7.13;1.60;;;14.70;99.90;;;;;;5029458;28;20121;-72
2022/06/29 01:06:16;;;;;;;7.55;1.33;;;14.80;99.90;;;;;;5026520;28;20112;-72
2022/06/29 01:08:42;;;;;;;10.52;1.58;;;14.80;99.90;;;;;;5027675;28;20037;-71
2022/06/29 01:11:08;;;;;;;7.22;1.70;;;14.90;99.90;;;;;;5028149;28;20037;-70
2022/06/29 01:13:33;;;;;;;7.60;1.50;;;14.90;99.90;;;;;;5022441;28;20037;-71
2022/06/29 01:15:59;;;;;;;9.88;2.00;;;15.00;99.90;;;;;;5024674;28;20041;-71
2022/06/29 01:18:25;;;;;;;7.05;1.60;;;15.00;99.90;;;;;;5017565;28;20026;-72
2022/06/29 01:20:50;;;;;;;6.55;1.20;;;15.10;99.90;;;;;;5016185;28;20029;-72
2022/06/29 01:23:16;;;;;;;6.20;1.30;;;15.00;99.90;;;;;;5021644;28;20033;-71
2022/06/29 01:25:42;;;;;;;6.13;1.10;;;15.00;99.90;;;;;;5023096;28;20045;-72
2022/06/29 01:28:07;;;;;;;7.63;1.52;;;15.10;99.90;;;;;;5025191;28;20095;-72
2022/06/29 01:30:33;;;;;;;6.05;1.27;;;15.10;99.90;;;;;;5024371;28;20045;-72
2022/06/29 01:32:59;;;;;;;6.70;1.65;;;15.10;99.90;;;;;;5025870;28;20106;-72
2022/06/29 01:35:24;;;;;;;4.30;1.10;;;15.10;99.90;;;;;;5029995;28;20037;-72
2022/06/29 01:37:50;;;;;;;7.78;1.55;;;15.10;99.90;;;;;;5026935;28;20029;-71
2022/06/29 01:40:16;;;;;;;6.93;1.60;;;15.10;99.90;;;;;;5026110;28;20037;-72
2022/06/29 01:42:41;;;;;;;4.47;1.15;;;15.10;99.90;;;;;;5027659;28;20025;-73
2022/06/29 01:45:08;;;;;;;5.47;1.38;;;15.10;99.90;;;;;;5027131;28;20083;-72
2022/06/29 01:47:33;;;;;;;6.72;1.15;;;15.10;99.90;;;;;;5026053;28;20052;-72
2022/06/29 01:49:59;;;;;;;4.88;1.00;;;15.10;99.90;;;;;;5061234;28;20069;-72
2022/06/29 01:52:25;;;;;;;5.97;1.40;;;15.20;99.90;;;;;;5033557;28;20451;-72
2022/06/29 01:54:50;;;;;;;4.43;1.20;;;15.20;99.90;;;;;;5033211;28;20057;-71
2022/06/29 01:57:16;;;;;;;6.60;1.20;;;15.20;99.90;;;;;;5031736;28;20380;-71
2022/06/29 01:59:42;;;;;;;5.25;1.25;;;15.20;99.90;;;;;;5034082;28;20164;-71
2022/06/29 02:02:08;;;;;;;5.43;1.30;;;15.20;99.90;;;;;;5028474;28;20091;-71
2022/06/29 02:04:33;;;;;;;8.88;1.58;;;15.30;99.90;;;;;;5030587;28;20031;-71
2022/06/29 02:06:59;;;;;;;6.28;1.20;;;15.30;99.90;;;;;;5038293;28;20021;-72
2022/06/29 02:09:25;;;;;;;7.20;1.33;;;15.20;99.90;;;;;;5027076;28;20041;-71
2022/06/29 02:11:51;;;;;;;9.35;1.77;;;15.20;99.90;;;;;;5027433;28;20644;-71
2022/06/29 02:14:16;;;;;;;6.35;1.55;;;15.30;99.90;;;;;;5034761;28;20025;-72
2022/06/29 02:16:42;;;;;;;5.55;1.35;;;15.30;99.90;;;;;;5031337;28;20034;-70
2022/06/29 02:19:08;;;;;;;8.63;1.35;;;15.20;99.90;;;;;;5024230;28;20029;-71
2022/06/29 02:21:33;;;;;;;7.03;1.30;;;15.30;99.90;;;;;;5024036;28;20087;-71
2022/06/29 02:23:59;;;;;;;7.70;1.58;;;15.20;99.90;;;;;;5018820;28;20192;-72
2022/06/29 02:26:25;;;;;;;7.53;1.25;;;15.20;99.90;;;;;;5021844;28;20034;-73
2022/06/29 02:28:51;;;;;;;6.32;1.40;;;15.20;99.90;;;;;;5029780;28;20037;-72
2022/06/29 02:36:45;;;;;;;6.57;1.60;;;15.20;99.90;;;;;;5020870;28;20176;-71
2022/06/29 02:39:10;;;;;;;6.35;1.65;;;15.20;99.90;;;;;;5033660;28;20143;-71
2022/06/29 02:41:36;;;;;;;4.93;1.13;;;15.20;99.90;;;;;;5025723;28;20033;-72
2022/06/29 02:44:02;;;;;;;8.98;1.73;;;15.20;99.90;;;;;;5027738;28;20040;-72
2022/06/29 02:46:28;;;;;;;7.55;1.50;;;15.20;99.90;;;;;;5020704;28;20040;-72
2022/06/29 02:48:53;;;;;;;5.30;1.30;;;15.20;99.90;;;;;;5023933;28;20029;-71
2022/06/29 02:51:19;;;;;;;5.65;1.23;;;15.20;99.90;;;;;;5022498;28;20534;-72
2022/06/29 02:53:45;;;;;;;6.35;1.40;;;15.20;99.90;;;;;;5018723;28;20037;-73
2022/06/29 02:56:10;;;;;;;5.70;1.30;;;15.20;99.90;;;;;;5025698;28;20033;-72
2022/06/29 02:58:36;;;;;;;9.02;1.58;;;15.20;99.90;;;;;;5028104;28;20124;-72
2022/06/29 03:01:02;;;;;;;6.10;1.30;;;15.30;99.90;;;;;;5018077;28;20030;-72
2022/06/29 03:03:28;;;;;;;6.80;1.50;;;15.30;99.90;;;;;;5025381;28;20671;-72
2022/06/29 03:05:53;;;;;;;9.43;1.60;;;15.30;99.90;;;;;;5027529;28;20117;-72
2022/06/29 03:08:19;;;;;;;11.27;1.80;;;15.30;99.90;;;;;;5026503;28;20040;-71
2022/06/29 03:10:45;;;;;;;8.00;1.63;;;15.30;99.90;;;;;;5032235;28;20044;-72
2022/06/29 03:13:10;;;;;;;6.47;1.25;;;15.30;99.90;;;;;;5021394;28;20060;-72
2022/06/29 03:15:36;;;;;;;6.05;1.92;;;15.30;99.90;;;;;;5019435;28;20057;-72
2022/06/29 03:18:02;;;;;;;7.28;1.58;;;15.40;99.90;;;;;;5013775;28;20056;-72
2022/06/29 03:20:28;;;;;;;7.80;1.80;;;15.40;99.90;;;;;;5025187;28;20022;-72
2022/06/29 03:22:53;;;;;;;8.73;1.77;;;15.40;99.90;;;;;;5017783;28;20056;-71
2022/06/29 03:25:19;;;;;;;6.68;1.55;;;15.40;99.90;;;;;;5023616;28;20060;-71
2022/06/29 03:27:45;;;;;;;5.57;1.33;;;15.50;99.90;;;;;;5020711;28;20037;-71
2022/06/29 03:30:12;;;;;;;11.88;1.90;;;15.50;99.90;;;;;;5018074;28;20033;-71
2022/06/29 03:32:38;;;;;;;5.28;1.60;;;15.50;99.90;;;;;;5031296;28;20034;-72
2022/06/29 03:35:05;;;;;;;6.43;1.50;;;15.50;99.90;;;;;;5013259;28;20038;-71
2022/06/29 03:37:30;;;;;;;6.32;1.80;;;15.50;99.90;;;;;;5033344;28;20043;-71
2022/06/29 03:39:57;;;;;;;8.75;1.77;;;15.50;99.90;;;;;;5018487;28;20035;-72
2022/06/29 03:42:23;;;;;;;8.30;2.10;;;15.50;99.90;;;;;;5012347;28;20563;-72
2022/06/29 03:44:48;;;;;;;6.47;1.65;;;15.60;99.90;;;;;;5009822;28;20038;-71
2022/06/29 03:47:14;;;;;;;5.10;1.85;;;15.60;99.90;;;;;;5034111;28;20044;-71
2022/06/29 03:49:40;;;;;;;8.55;1.88;;;15.60;99.90;;;;;;5025593;28;20499;-73
2022/06/29 03:52:06;;;;;;;8.00;1.60;;;15.50;99.90;;;;;;5019328;28;20092;-72
2022/06/29 03:54:32;;;;;;;10.30;1.75;;;15.60;99.90;;;;;;5012249;28;20150;-72
2022/06/29 03:56:58;;;;;;;7.05;1.80;;;15.60;99.90;;;;;;5027791;28;20112;-72
2022/06/29 03:59:24;;;;;;;9.95;1.55;;;15.60;99.90;;;;;;5019025;28;20026;-72
2022/06/29 04:01:50;;;;;;;4.53;1.70;;;15.60;99.90;;;;;;5020397;28;20041;-72
2022/06/29 04:04:16;;;;;;;6.55;1.45;;;15.60;99.90;;;;;;5035985;28;20057;-72
2022/06/29 04:06:42;;;;;;;7.70;1.65;;;15.60;99.90;;;;;;5022984;28;20041;-72
2022/06/29 04:09:08;;;;;;;7.85;1.42;;;15.70;99.90;;;;;;5026902;28;20072;-71
2022/06/29 04:11:49;;;;;;;5.55;1.90;;;15.60;99.90;;;;;;5020559;28;20060;-72
2022/06/29 04:14:18;;;;;;;10.30;2.05;;;15.70;99.90;;;;;;5020696;28;20057;-72
2022/06/29 04:16:44;;;;;;;7.57;1.67;;;15.70;99.90;;;;;;5022046;28;20395;-73
2022/06/29 04:19:10;;;;;;;10.98;2.08;;;15.70;99.90;;;;;;5026482;28;20040;-72
2022/06/29 04:21:35;;;;;;;7.15;1.63;;;15.60;99.90;;;;;;5027875;28;20106;-73
2022/06/29 04:24:01;;;;;;;6.40;1.55;;;15.70;99.90;;;;;;5034067;28;20049;-71
2022/06/29 04:26:27;;;;;;;8.70;1.70;;;15.70;99.90;;;;;;5021839;28;20439;-71
2022/06/29 04:28:53;;;;;;;10.40;1.90;;;15.70;99.90;;;;;;5020998;28;20399;-72
2022/06/29 04:31:18;;;;;;;5.78;1.55;;;15.70;99.90;;;;;;5027381;28;20028;-71
2022/06/29 04:33:44;;;;;;;6.70;1.70;;;15.70;99.90;;;;;;5022369;28;20116;-71
2022/06/29 04:36:10;;;;;;;8.13;1.63;;;15.80;99.90;;;;;;5018885;28;20026;-72
2022/06/29 04:38:36;;;;;;;7.88;1.40;;;15.80;99.90;;;;;;5030992;28;20502;-74
2022/06/29 04:41:01;;;;;;;6.97;1.70;;;15.90;99.90;;;;;;5023679;28;20423;-73
2022/06/29 04:43:29;;;;;;;7.68;1.52;;;15.80;99.90;;;;;;5021588;28;20037;-74
2022/06/29 04:48:39;;;;;;;8.32;1.65;;;15.90;99.90;;;;;;5020684;28;20098;-73
2022/06/29 04:51:05;;;;;;;9.40;1.40;;;15.90;99.90;;;;;;5022465;28;20484;-71
2022/06/29 04:53:31;;;;;;;8.27;1.67;;;15.90;99.90;;;;;;5019890;28;20844;-72
2022/06/29 04:55:56;;;;;;;7.38;1.30;;;15.90;99.90;;;;;;5024992;28;20025;-71
2022/06/29 04:58:22;;;;;;;4.97;1.20;;;15.90;99.90;;;;;;5027617;28;20087;-72
2022/06/29 05:00:48;;;;;;;6.65;1.58;;;15.90;99.90;;;;;;5018803;28;20078;-72
2022/06/29 05:03:13;;;;;;;7.82;1.80;;;15.90;99.90;;;;;;5027485;28;20086;-71
2022/06/29 05:05:39;;;;;;;7.50;1.50;;;15.80;99.90;;;;;;5028939;28;20439;-72
2022/06/29 05:08:05;;;;;;;8.38;1.60;;;15.80;99.90;;;;;;5009564;28;20029;-72
2022/06/29 05:10:31;;;;;;;7.85;1.85;;;15.70;99.90;;;;;;5043308;28;20393;-73
2022/06/29 05:12:57;;;;;;;10.32;2.10;;;15.70;99.90;;;;;;5016976;28;20116;-72
2022/06/29 05:15:23;;;;;;;7.60;1.70;;;15.60;99.90;;;;;;5027741;28;20032;-72
2022/06/29 05:17:49;;;;;;;5.90;1.50;;;15.60;99.90;;;;;;5015220;28;20029;-71
2022/06/29 05:20:15;;;;;;;7.18;1.88;;;15.60;99.90;;;;;;5026686;28;20029;-71
2022/06/29 05:22:41;;;;;;;7.35;1.80;;;15.50;99.90;;;;;;5029475;28;20029;-72
2022/06/29 05:25:07;;;;;;;7.88;1.50;;;15.60;99.90;;;;;;5024390;28;20466;-72
2022/06/29 05:27:33;;;;;;;7.07;1.55;;;15.60;99.90;;;;;;5023812;28;20470;-72
2022/06/29 05:29:59;;;;;;;6.75;1.63;;;15.60;99.90;;;;;;5022536;28;20549;-72
2022/06/29 05:32:25;;;;;;;7.70;2.00;;;15.60;99.90;;;;;;5012723;28;20042;-72
2022/06/29 05:34:50;;;;;;;8.38;1.88;;;15.60;99.90;;;;;;5029889;28;20095;-71
2022/06/29 05:37:17;;;;;;;9.43;1.85;;;15.70;99.90;;;;;;5023483;28;20033;-72
2022/06/29 05:39:44;;;;;;;9.88;2.05;;;15.70;99.90;;;;;;5025023;28;20037;-72
2022/06/29 05:42:10;;;;;;;7.60;1.77;;;15.70;99.90;;;;;;5028296;28;20396;-71
2022/06/29 05:44:36;;;;;;;9.00;1.98;;;15.70;99.90;;;;;;5025893;28;20108;-72
2022/06/29 05:47:03;;;;;;;8.10;1.60;;;15.70;99.90;;;;;;5027165;28;20128;-73
2022/06/29 05:49:29;;;;;;;8.98;1.85;;;15.70;99.90;;;;;;5022108;28;20563;-72
2022/06/29 05:51:54;;;;;;;5.18;1.50;;;15.80;99.90;;;;;;5028874;28;20097;-72
2022/06/29 05:54:20;;;;;;;7.68;1.77;;;15.80;99.90;;;;;;5026118;28;20029;-73
2022/06/29 05:56:46;;;;;;;7.75;1.60;;;15.80;99.90;;;;;;5026293;28;20029;-72
2022/06/29 05:59:11;;;;;;;8.10;2.03;;;15.80;99.90;;;;;;5032379;28;20029;-72
2022/06/29 06:01:37;;;;;;;8.77;2.10;;;15.80;99.90;;;;;;5032883;28;20670;-72
2022/06/29 06:04:03;;;;;;;6.85;1.77;;;15.80;99.90;;;;;;5021047;28;20033;-73
2022/06/29 06:06:28;;;;;;;6.22;1.50;;;15.80;99.90;;;;;;5025201;28;20034;-73
2022/06/29 06:08:54;;;;;;;11.00;2.08;;;15.70;99.90;;;;;;5022479;28;20037;-72
2022/06/29 06:11:19;;;;;;;9.95;1.95;;;15.70;99.90;;;;;;5027639;28;20046;-73
2022/06/29 06:13:45;;;;;;;10.05;2.10;;;15.80;99.90;;;;;;5020653;28;20057;-73
2022/06/29 06:16:11;;;;;;;9.75;1.60;;;15.80;99.90;;;;;;5022346;28;20034;-72
2022/06/29 06:18:36;;;;;;;6.22;1.40;;;15.80;99.90;;;;;;5029218;28;20400;-72
2022/06/29 06:21:02;;;;;;;9.60;1.73;;;15.80;99.90;;;;;;5030240;28;20503;-72
2022/06/29 06:23:28;;;;;;;9.20;2.35;;;15.80;99.90;;;;;;5034547;28;20040;-72
2022/06/29 06:25:53;;;;;;;8.60;2.00;;;15.80;99.90;;;;;;5030911;28;20079;-71
2022/06/29 06:28:19;;;;;;;7.82;1.80;;;15.80;99.90;;;;;;5029324;28;20033;-71
2022/06/29 06:30:45;;;;;;;8.75;2.22;;;15.80;99.90;;;;;;5028998;28;20404;-73
2022/06/29 06:33:10;;;;;;;8.70;2.00;;;15.80;99.90;;;;;;5029095;28;20057;-71
2022/06/29 06:35:36;;;;;;;7.80;2.05;;;15.80;99.90;;;;;;5029784;28;20065;-71
2022/06/29 06:38:02;;;;;;;6.82;2.00;;;15.70;99.90;;;;;;5020516;28;20077;-72
2022/06/29 06:43:12;;;;;;;4.65;1.60;;;15.60;99.90;;;;;;5011624;28;20060;-74
2022/06/29 06:45:37;;;;;;;6.18;1.85;;;15.50;99.90;;;;;;5050924;28;20408;-73
2022/06/29 06:48:04;;;;;;;6.05;1.85;;;15.50;99.90;;;;;;5011340;28;20042;-75
2022/06/29 06:50:29;;;;;;;7.38;2.30;;;15.40;99.90;;;;;;5031297;28;20058;-72
2022/06/29 06:52:55;;;;;;;5.90;1.90;;;15.40;99.90;;;;;;5011374;28;20688;-72
2022/06/29 06:55:21;;;;;;;7.28;2.00;;;15.40;99.90;;;;;;5033628;28;20037;-72
2022/06/29 06:57:46;;;;;;;7.03;2.22;;;15.40;99.90;;;;;;5033012;28;20139;-72
2022/06/29 07:00:12;;;;;;;6.50;1.67;;;15.30;99.90;;;;;;5031055;28;20044;-73
2022/06/29 07:02:39;;;;;;;6.60;1.80;;;15.40;99.90;;;;;;5027346;28;20032;-73
2022/06/29 07:05:05;;;;;;;5.97;1.90;;;15.40;99.90;;;;;;5028856;28;20044;-72
2022/06/29 07:07:30;;;;;;;5.38;1.88;;;15.40;99.90;;;;;;5027533;28;20094;-76
2022/06/29 07:09:56;;;;;;;7.18;1.92;;;15.50;99.90;;;;;;5018289;28;20392;-73
2022/06/29 07:12:22;;;;;;;6.05;1.73;;;15.50;99.90;;;;;;5019227;28;20037;-70
2022/06/29 07:14:47;;;;;;;4.10;1.83;;;15.50;99.90;;;;;;5013922;28;20105;-71
2022/06/29 07:17:13;;;;;;;6.47;1.70;;;15.60;99.90;;;;;;5015576;28;20080;-71
2022/06/29 07:19:39;;;;;;;4.80;1.77;;;15.50;99.90;;;;;;5026974;28;20029;-72
2022/06/29 07:22:05;;;;;;;5.10;1.55;;;15.60;99.90;;;;;;5022265;28;20726;-72
2022/06/29 07:24:31;;;;;;;5.55;1.80;;;15.60;99.90;;;;;;5015258;28;20140;-71
2022/06/29 07:26:57;;;;;;;6.13;1.98;;;15.60;99.90;;;;;;5025580;28;20034;-72
2022/06/29 07:29:23;;;;;;;3.97;2.05;;;15.70;99.90;;;;;;5015025;28;20051;-71
2022/06/29 07:31:48;;;;;;;6.40;2.13;;;15.70;99.90;;;;;;5026805;28;20041;-71
2022/06/29 07:34:14;;;;;;;4.72;1.85;;;15.60;99.90;;;;;;5029744;28;20033;-71
2022/06/29 07:36:40;;;;;;;5.63;2.10;;;15.70;99.90;;;;;;5016939;28;20034;-70
2022/06/29 07:39:05;;;;;;;5.07;1.70;;;15.70;99.90;;;;;;5030690;28;20045;-72
2022/06/29 07:41:31;;;;;;;5.53;1.90;;;15.60;99.90;;;;;;5030465;28;20026;-71
2022/06/29 07:43:57;;;;;;;7.45;2.05;;;15.70;99.90;;;;;;5022919;28;20032;-69
2022/06/29 07:46:23;;;;;;;4.10;1.90;;;15.60;99.90;;;;;;5015181;28;20120;-72
2022/06/29 07:48:48;;;;;;;8.20;2.13;;;15.70;99.90;;;;;;5031637;28;20365;-71
2022/06/29 07:51:14;;;;;;;5.35;1.73;;;15.70;99.90;;;;;;5028880;28;20057;-70
2022/06/29 07:53:40;;;;;;;5.40;2.30;;;15.60;99.90;;;;;;5028438;28;20127;-70
2022/06/29 07:56:05;;;;;;;5.00;2.00;;;15.60;99.90;;;;;;5029772;28;20036;-71
2022/06/29 07:58:31;;;;;;;6.53;2.10;;;15.60;99.90;;;;;;5018869;28;20052;-71
2022/06/29 08:00:57;;;;;;;8.15;2.00;;;15.50;99.90;;;;;;5007855;28;20029;-74
2022/06/29 08:03:22;;;;;;;6.65;1.80;;;15.50;99.90;;;;;;5013556;28;20457;-75
2022/06/29 08:05:48;;;;;;;5.07;1.70;;;15.50;99.90;;;;;;5010542;28;20037;-75
2022/06/29 08:08:14;;;;;;;6.22;1.98;;;15.50;99.90;;;;;;5018902;28;20038;-74
2022/06/29 08:10:40;;;;;;;9.02;2.53;;;15.50;99.90;;;;;;5041447;28;20042;-72
2022/06/29 08:13:06;;;;;;;5.38;1.70;;;15.50;99.90;;;;;;5020673;28;20471;-73
2022/06/29 08:15:31;;;;;;;7.97;2.50;;;15.40;99.90;;;;;;5012490;28;20488;-74
2022/06/29 08:17:58;;;;;;;6.93;1.98;;;15.40;99.90;;;;;;5022156;28;20029;-73
2022/06/29 08:20:23;;;;;;;5.68;2.08;;;15.40;99.90;;;;;;5014150;28;20049;-75
2022/06/29 08:22:49;;;;;;;6.10;2.17;;;15.30;99.90;;;;;;5009222;28;20041;-74
2022/06/29 08:25:15;;;;;;;6.63;2.20;;;15.20;99.90;;;;;;5010022;28;20093;-73
2022/06/29 08:27:41;;;;;;;6.05;2.17;;;15.20;99.90;;;;;;5021088;28;20026;-73
2022/06/29 08:30:08;;;;;;;6.40;2.78;;;15.20;99.90;;;;;;5010371;28;20038;-75
2022/06/29 08:32:34;;;;;;;8.38;2.38;;;15.20;99.90;;;;;;5009402;28;20061;-71
2022/06/29 08:35:01;;;;;;;4.97;2.25;;;15.30;99.90;;;;;;5019100;28;20041;-71
2022/06/29 08:37:30;;;;;;;6.25;2.65;;;15.40;99.90;;;;;;5014365;28;20045;-70
2022/06/29 08:39:56;;;;;;;5.40;2.43;;;15.40;99.90;;;;;;5011793;28;21262;-72
2022/06/29 08:42:23;;;;;;;5.68;2.20;;;15.50;99.90;;;;;;5009922;28;20469;-75
2022/06/29 08:44:50;;;;;;;6.50;2.55;;;15.50;99.90;;;;;;5018082;28;20022;-72
2022/06/29 08:47:16;;;;;;;5.93;2.40;;;15.50;99.90;;;;;;5013511;28;20073;-73
2022/06/29 08:49:44;;;;;;;5.65;2.30;;;15.60;99.90;;;;;;5011284;28;20046;-73
2022/06/29 08:52:10;;;;;;;7.78;2.60;;;15.50;99.90;;;;;;5015141;28;20124;-74
2022/06/29 08:54:39;;;;;;;5.80;2.40;;;15.40;99.90;;;;;;5009046;28;20037;-74
2022/06/29 08:57:05;;;;;;;6.13;2.08;;;15.40;99.90;;;;;;5017783;28;20033;-71
2022/06/29 08:59:33;;;;;;;5.68;2.53;;;15.30;99.90;;;;;;5016379;28;20115;-69
2022/06/29 09:01:59;;;;;;;4.20;1.67;;;15.30;99.90;;;;;;5044231;28;20133;-71
2022/06/29 09:04:25;;;;;;;5.25;2.05;;;15.30;99.90;;;;;;5007951;28;20049;-68
2022/06/29 09:06:55;;;;;;;6.63;2.70;;;15.40;99.90;;;;;;5041287;28;20515;-73
2022/06/29 09:09:20;;;;;;;;;;;15.50;99.90;;;;;;5013614;28;20411;-68
2022/06/29 09:11:52;;;;;;;6.53;2.30;;;15.50;99.90;;;;;;5037961;28;20376;-69
2022/06/29 09:14:20;;;;;;;9.18;2.53;;;15.50;99.90;;;;;;5023995;28;20120;-67
2022/06/29 09:16:49;;;;;;;6.50;2.53;;;15.50;99.90;;;;;;5026268;28;20033;-67
2022/06/29 09:19:19;;;;;;;5.45;1.60;;;15.50;99.90;;;;;;5013543;28;20045;-69
2022/06/29 09:21:53;;;;;;;4.53;1.48;;;15.50;99.90;;;;;;5039635;28;20117;-68
2022/06/29 09:24:21;;;;;;;5.53;1.77;;;15.50;99.90;;;;;;5051082;28;20080;-68
2022/06/29 09:26:55;;;;;;;4.28;1.70;;;15.50;99.90;;;;;;5011226;28;20041;-69
2022/06/29 09:29:24;;;;;;;5.68;1.98;;;15.50;99.90;;;;;;5024652;28;20041;-70
2022/06/29 09:32:02;;;;;;;5.10;1.58;;;15.50;99.90;;;;;;5026179;28;20886;-66
2022/06/29 09:36:21;;;;;;;4.97;1.85;;;15.70;99.90;;;;;;5063476;28;20419;-66
2022/06/29 09:38:46;;;;;;;3.92;1.88;;;15.70;99.90;;;;;;5064105;28;20075;-68
2022/06/29 09:41:14;;;;;;;8.07;2.30;;;15.70;99.90;;;;;;5061313;28;20775;-70
2022/06/29 09:43:44;;;;;;;3.30;1.55;;;15.70;99.90;;;;;;5052730;28;20029;-71
2022/06/29 09:46:10;;;;;;;;;;;15.70;99.90;;;;;;5065346;28;20040;-70
2022/06/29 09:48:37;;;;;;;7.20;2.22;;;15.70;99.90;;;;;;5064749;28;19908;-70
2022/06/29 09:51:30;;;;;;;4.53;2.10;;;15.70;99.90;;;;;;5052713;28;20045;-70
2022/06/29 09:54:03;;;;;;;6.75;2.28;;;15.70;99.90;;;;;;5044766;28;20029;-70
2022/06/29 09:56:30;;;;;;;4.78;1.73;;;15.60;99.90;;;;;;5044918;28;20495;-70
2022/06/29 09:58:58;;;;;;;6.55;1.63;;;15.50;99.90;;;;;;5055106;28;20467;-70
2022/06/29 10:04:10;;;;;;;4.72;1.77;;;15.50;99.90;;;;;;5064575;28;20074;-69
2022/06/29 10:06:37;;;;;;;6.18;1.35;;;15.50;99.90;;;;;;5052980;28;20549;-70
2022/06/29 10:09:04;;;;;;;5.03;1.30;;;15.40;99.90;;;;;;5044696;28;20037;-71
2022/06/29 10:15:13;;;;;;;4.28;1.33;;;15.30;99.90;;;;;;5047608;28;20201;-70
2022/06/29 10:18:02;;;;;;;7.75;1.60;;;15.30;99.90;;;;;;5047033;28;20358;-71
2022/06/29 10:20:33;;;;;;;5.47;1.42;;;15.40;99.90;;;;;;5059218;28;20032;-70
2022/06/29 10:22:59;;;;;;;9.38;2.13;;;15.50;99.90;;;;;;5064346;28;20051;-70
2022/06/29 10:25:27;;;;;;;7.35;1.60;;;15.60;99.90;;;;;;5063897;28;20045;-70
2022/06/29 10:28:20;;;;;;;8.15;2.25;;;15.60;99.90;;;;;;5056176;28;20115;-70
2022/06/29 10:30:46;;;;;;;10.70;2.38;;;15.80;99.90;;;;;;5053580;28;20035;-70
2022/06/29 10:33:35;;;;;;;9.88;2.30;;;15.90;99.90;;;;;;5061912;28;20031;-70
2022/06/29 10:36:06;;;;;;;9.30;2.22;;;15.90;99.90;;;;;;5052251;28;20057;-70
2022/06/29 10:38:58;;;;;;;11.77;2.75;;;15.80;99.90;;;;;;5055338;28;20123;-71
2022/06/29 10:44:08;;;;;;;12.98;3.15;;;15.70;99.90;;;;;;5054877;28;20437;-73
2022/06/29 10:46:56;;;;;;;11.40;2.75;;;15.60;99.90;;;;;;5038629;28;20029;-70
2022/06/29 10:49:22;;;;;;;13.00;2.83;;;15.60;99.90;;;;;;5042808;28;20115;-70
2022/06/29 10:51:51;;;;;;;10.48;2.58;;;15.50;99.90;;;;;;5032205;28;20119;-69
2022/06/29 10:54:29;;;;;;;8.33;2.27;;;15.50;99.90;;;;;;5045143;28;20052;-70
2022/06/29 10:56:55;;;;;;;8.40;2.60;;;15.50;99.90;;;;;;5050701;28;20033;-70
2022/06/29 10:59:32;;;;;;;8.93;1.85;;;15.60;99.90;;;;;;5050484;28;20033;-70
2022/06/29 11:02:16;;;;;;;7.97;1.60;;;15.60;99.90;;;;;;5041033;28;20025;-70
2022/06/29 11:04:43;;;;;;;6.80;2.00;;;15.90;99.90;;;;;;5048552;28;20029;-70
2022/06/29 11:12:53;;;;;;;7.13;2.05;;;17.00;99.90;;;;;;5036215;28;20560;-70
2022/06/29 11:15:41;;;;;;;6.03;1.75;;;17.40;99.90;;;;;;5035549;28;20499;-70
2022/06/29 11:18:12;;;;;;;5.50;1.55;;;17.80;99.90;;;;;;5039098;28;20036;-70
2022/06/29 11:20:39;;;;;;;7.30;1.88;;;18.50;99.90;;;;;;5049648;28;20081;-70
2022/06/29 11:23:13;;;;;;;6.50;1.33;;;21.00;99.90;;;;;;5034422;28;20046;-70
2022/06/29 11:25:40;;;;;;;7.90;1.40;;;23.30;99.90;;;;;;5039066;28;20033;-73
2022/06/29 11:28:06;;;;;;;4.95;1.00;;;23.60;99.90;;;;;;5032413;28;21311;-73
2022/06/29 11:30:33;;;;;;;7.28;1.70;;;21.90;99.90;;;;;;5039869;28;20033;-72
2022/06/29 11:33:05;;;;;;;4.95;1.35;;;21.10;99.90;;;;;;5030117;28;20026;-72
2022/06/29 11:35:31;;;;;;;6.20;1.45;;;20.60;99.90;;;;;;5031587;28;20743;-73
2022/06/29 11:38:01;;;;;;;6.60;1.30;;;20.50;99.90;;;;;;5033994;28;20043;-72
2022/06/29 11:40:42;;;;;;;5.50;1.48;;;20.50;99.90;;;;;;5029656;28;20018;-71
2022/06/29 11:43:15;;;;;;;5.35;1.60;;;20.30;99.90;;;;;;5065543;28;20592;-71
2022/06/29 11:45:52;;;;;;;7.10;1.63;;;20.00;99.90;;;;;;5033883;28;20788;-72
2022/06/29 11:48:22;;;;;;;6.32;1.95;;;19.70;99.90;;;;;;5035099;28;20140;-72
2022/06/29 11:50:56;;;;;;;5.40;1.50;;;19.60;99.90;;;;;;5032280;28;20060;-71
2022/06/29 11:53:53;;;;;;;8.02;1.73;;;19.40;99.90;;;;;;5039861;28;20088;-73
2022/06/29 11:56:22;;;;;;;7.53;1.63;;;19.30;99.90;;;;;;5036120;28;20029;-72
2022/06/29 11:58:50;;;;;;;8.48;1.85;;;19.10;99.90;;;;;;5033311;28;20060;-73
2022/06/29 12:01:21;;;;;;;7.20;1.85;;;19.10;99.90;;;;;;5075559;28;20037;-70
2022/06/29 12:03:49;;;;;;;5.72;1.70;;;19.10;99.90;;;;;;5044244;28;20112;-72
2022/06/29 12:06:15;;;;;;;6.90;1.58;;;19.30;99.90;;;;;;5043331;28;20191;-71
2022/06/29 12:08:41;;;;;;;6.10;1.58;;;19.70;99.90;;;;;;5031721;28;20029;-72
2022/06/29 12:11:07;;;;;;;6.85;1.55;;;19.90;99.90;;;;;;5036319;28;20044;-71
2022/06/29 12:13:32;;;;;;;5.85;1.70;;;19.80;99.90;;;;;;5040705;28;20098;-70
2022/06/29 12:15:58;;;;;;;8.27;1.67;;;19.80;99.90;;;;;;5032045;28;20046;-69
2022/06/29 12:18:24;;;;;;;6.68;1.63;;;19.80;99.90;;;;;;5035761;28;20067;-72
2022/06/29 12:20:50;;;;;;;7.88;1.63;;;19.80;99.90;;;;;;5030237;28;20037;-75
2022/06/29 12:23:15;;;;;;;7.53;1.63;;;19.90;99.90;;;;;;5028548;28;20118;-71
2022/06/29 12:25:41;;;;;;;8.38;2.08;;;19.90;99.90;;;;;;5032460;28;20072;-73
2022/06/29 12:28:07;;;;;;;5.80;1.70;;;19.80;99.90;;;;;;5036689;28;20100;-73
2022/06/29 12:30:34;;;;;;;8.48;2.00;;;19.80;99.90;;;;;;5038663;28;20036;-73
2022/06/29 12:33:00;;;;;;;11.40;2.20;;;19.70;99.90;;;;;;5030699;28;20033;-73
2022/06/29 12:35:26;;;;;;;8.63;2.03;;;19.60;99.90;;;;;;5043532;28;20084;-71
2022/06/29 12:37:57;;;;;;;6.80;1.77;;;19.60;99.90;;;;;;5034049;28;20057;-72
2022/06/29 12:40:24;;;;;;;7.43;2.00;;;19.40;99.90;;;;;;5034319;28;20025;-72
2022/06/29 12:42:50;;;;;;;10.18;2.38;;;19.20;99.90;;;;;;5044275;28;20106;-72
2022/06/29 12:45:16;;;;;;;11.13;2.20;;;19.30;99.90;;;;;;5040018;28;20482;-73
2022/06/29 12:47:41;;;;;;;9.95;2.20;;;19.60;99.90;;;;;;5042880;28;20040;-72
2022/06/29 12:50:07;;;;;;;8.82;1.98;;;19.60;99.90;;;;;;5029059;28;20037;-72
2022/06/29 12:52:33;;;;;;;10.02;2.05;;;19.60;99.90;;;;;;5028595;28;20326;-73
2022/06/29 12:54:58;;;;;;;7.65;2.13;;;19.40;99.90;;;;;;5032961;28;20041;-73
2022/06/29 12:57:24;;;;;;;8.43;2.13;;;19.20;99.90;;;;;;5043029;28;20136;-71
2022/06/29 12:59:50;;;;;;;9.93;1.95;;;18.90;99.90;;;;;;5043873;28;20065;-72
2022/06/29 13:02:19;;;;;;;13.73;2.22;;;18.60;99.90;;;;;;5027639;28;20060;-72
2022/06/29 13:04:44;;;;;;;8.82;2.22;;;18.40;99.90;;;;;;5027733;28;20021;-72
2022/06/29 13:07:10;;;;;;;8.52;1.90;;;18.40;99.90;;;;;;5039658;28;20095;-71
2022/06/29 13:09:36;;;;;;;9.57;2.15;;;18.30;99.90;;;;;;5035218;28;20098;-68
2022/06/29 13:12:02;;;;;;;12.10;2.70;;;18.20;99.90;;;;;;5029524;28;20529;-68